首页
METAR-TAF:

METAR-TAF

机场 :

Hurlburt Field

Mary Esther, 佛罗里达州, 美国

纬度: 30-25N, 经度: 086-41W, 海拔: 12米

当前天气观测

该预报发布于29分钟前的22:56 UTC
风速5节,风向
温度 23°C
湿度 65%
气压 1018 hPa
能見度: 16.1公里
少量云层高于25000英尺

METAR: KHRT 062256Z 19005KT 10SM FEW250 23/16 A3005 RMK AO2A SLP178 T02290164 $

时间: 18:25 (23:25 UTC)

预报

该预报发布于5小时和25分钟前的18:00 UTC
预报有效从06日的 18点(UTC)到 07日的 24点(UTC)
风速7节,风向南转南东
能见度10公里或以上
少量云层高于5000英尺
散云层高于15000英尺
成为
从 07日的 02点(UTC)到 07日的 03点(UTC)
风速5节,风向
能见度10公里或以上
散云层高于3000英尺
散云层高于15000英尺
多云层高于20000英尺
短暂存在
从 07日的 10点(UTC)到 07日的 12点(UTC)
能見度: 6000
少量云层高于1000英尺
散云层高于3000英尺
多云层高于12000英尺
轻雾
成为
从 07日的 14点(UTC)到 07日的 15点(UTC)
风速7节,风向
能见度10公里或以上
散云层高于1500英尺
散云层高于5000英尺
散云层高于18000英尺

TAF: KHRT 061800Z 0618/0724 16007KT 9999 FEW050 SCT150 QNH3007INS BECMG 0702/0703 17005KT 9999 SCT030 SCT150 BKN200 QNH3005INS TEMPO 0710/0712 6000 BR FEW010 SCT030 BKN120 BECMG 0714/0715 18007KT 9999 SCT015 SCT050 SCT180 QNH2999INS TX25/0618Z TN17/0710Z

超过4000个机场的气象观测和天气预报(METAR&TAF报告)。

可查询的气象台以黄色和红色小点在地图上表示。

将鼠标移到小点上方,可查看气象台名称。

然后点击查看天气观测和预报。

如需切换地图:点击带黑十字的绿色按钮放大地图;点击带横线的绿色按钮缩小地图;或者点击绿色箭头查看邻近地区的地图。


METAR-TAF: